Terminal Aerodrome Forecast
Issued by NWS Central Illinois

Home | Current Version | Previous Version | Text Only | Print | Product List | Glossary On
Versions: 1 2 3 4 5 6 7 8 9 10 11 12 13 14 15 16 17 18 19 20 21 22 23 24 25 26 27 28
000
FTUS43 KILX 011135
TAFSPI
TAF
KSPI 011135Z 0112/0212 05007KT 1SM BR OVC002
     FM011500 07006KT 3SM BR BKN008
     FM011800 VRB06KT P6SM BKN015
     FM012100 VRB06KT P6SM VCTS BKN025CB
     FM020300 34007KT 5SM BR BKN007=

USA.gov is the U.S. government's official web portal to all federal, state and local government web resources and services.